sensor_id;sensor_type;location;lat;lon;timestamp;temperature;humidity
1568;DHT22;777;47.156;8.326;2023-12-29T00:00:16;4.80;99.90
1568;DHT22;777;47.156;8.326;2023-12-29T00:02:43;4.80;99.90
1568;DHT22;777;47.156;8.326;2023-12-29T00:05:10;4.70;99.90
1568;DHT22;777;47.156;8.326;2023-12-29T00:07:37;4.70;99.90
1568;DHT22;777;47.156;8.326;2023-12-29T00:10:05;4.70;99.90
1568;DHT22;777;47.156;8.326;2023-12-29T00:12:32;4.70;99.90
1568;DHT22;777;47.156;8.326;2023-12-29T00:14:59;4.70;99.90
1568;DHT22;777;47.156;8.326;2023-12-29T00:17:27;4.70;99.90
1568;DHT22;777;47.156;8.326;2023-12-29T00:19:54;4.60;99.90
1568;DHT22;777;47.156;8.326;2023-12-29T00:22:21;4.60;99.90
1568;DHT22;777;47.156;8.326;2023-12-29T00:24:49;4.60;99.90
1568;DHT22;777;47.156;8.326;2023-12-29T00:27:16;4.60;99.90
1568;DHT22;777;47.156;8.326;2023-12-29T00:29:43;4.60;99.90
1568;DHT22;777;47.156;8.326;2023-12-29T00:32:10;4.60;99.90
1568;DHT22;777;47.156;8.326;2023-12-29T00:34:38;4.60;99.90
1568;DHT22;777;47.156;8.326;2023-12-29T00:37:06;4.60;99.90
1568;DHT22;777;47.156;8.326;2023-12-29T00:39:34;4.50;99.90
1568;DHT22;777;47.156;8.326;2023-12-29T00:42:04;4.50;99.90
1568;DHT22;777;47.156;8.326;2023-12-29T00:44:32;4.40;99.90
1568;DHT22;777;47.156;8.326;2023-12-29T00:46:59;4.40;99.90
1568;DHT22;777;47.156;8.326;2023-12-29T00:49:26;4.40;99.90
1568;DHT22;777;47.156;8.326;2023-12-29T00:51:55;4.30;99.90
1568;DHT22;777;47.156;8.326;2023-12-29T00:54:22;4.40;99.90
1568;DHT22;777;47.156;8.326;2023-12-29T00:56:50;4.40;99.90
1568;DHT22;777;47.156;8.326;2023-12-29T00:59:19;4.60;99.90
1568;DHT22;777;47.156;8.326;2023-12-29T01:01:46;4.70;99.90
1568;DHT22;777;47.156;8.326;2023-12-29T01:04:13;4.80;99.90
1568;DHT22;777;47.156;8.326;2023-12-29T01:06:40;4.80;99.90
1568;DHT22;777;47.156;8.326;2023-12-29T01:09:08;4.90;99.90
1568;DHT22;777;47.156;8.326;2023-12-29T01:11:36;4.90;99.90
1568;DHT22;777;47.156;8.326;2023-12-29T01:14:03;5.00;99.90
1568;DHT22;777;47.156;8.326;2023-12-29T01:16:32;5.00;99.90
1568;DHT22;777;47.156;8.326;2023-12-29T01:18:59;5.00;99.90
1568;DHT22;777;47.156;8.326;2023-12-29T01:21:26;5.00;99.90
1568;DHT22;777;47.156;8.326;2023-12-29T01:23:53;4.80;99.90
1568;DHT22;777;47.156;8.326;2023-12-29T01:26:21;4.70;99.90
1568;DHT22;777;47.156;8.326;2023-12-29T01:28:48;4.60;99.90
1568;DHT22;777;47.156;8.326;2023-12-29T01:31:15;4.50;99.90
1568;DHT22;777;47.156;8.326;2023-12-29T01:33:42;4.40;99.90
1568;DHT22;777;47.156;8.326;2023-12-29T01:36:09;4.30;99.90
1568;DHT22;777;47.156;8.326;2023-12-29T01:38:43;4.30;99.90
1568;DHT22;777;47.156;8.326;2023-12-29T01:41:09;4.40;99.90
1568;DHT22;777;47.156;8.326;2023-12-29T01:44:17;4.40;99.90
1568;DHT22;777;47.156;8.326;2023-12-29T01:46:45;4.40;99.90
1568;DHT22;777;47.156;8.326;2023-12-29T01:49:13;4.40;99.90
1568;DHT22;777;47.156;8.326;2023-12-29T01:51:42;4.40;99.90
1568;DHT22;777;47.156;8.326;2023-12-29T01:54:10;4.30;99.90
1568;DHT22;777;47.156;8.326;2023-12-29T01:56:38;4.30;99.90
1568;DHT22;777;47.156;8.326;2023-12-29T01:59:07;4.30;99.90
1568;DHT22;777;47.156;8.326;2023-12-29T02:01:36;4.30;99.90
1568;DHT22;777;47.156;8.326;2023-12-29T02:04:05;4.40;99.90
1568;DHT22;777;47.156;8.326;2023-12-29T02:06:33;4.40;99.90
1568;DHT22;777;47.156;8.326;2023-12-29T02:09:01;4.40;99.90
1568;DHT22;777;47.156;8.326;2023-12-29T02:11:29;4.40;99.90
1568;DHT22;777;47.156;8.326;2023-12-29T02:13:57;4.50;99.90
1568;DHT22;777;47.156;8.326;2023-12-29T02:16:35;4.40;99.90
1568;DHT22;777;47.156;8.326;2023-12-29T02:19:17;4.40;99.90
1568;DHT22;777;47.156;8.326;2023-12-29T02:21:49;4.40;99.90
1568;DHT22;777;47.156;8.326;2023-12-29T02:24:16;4.40;99.90
1568;DHT22;777;47.156;8.326;2023-12-29T02:26:48;4.50;99.90
1568;DHT22;777;47.156;8.326;2023-12-29T02:29:20;4.40;99.90
1568;DHT22;777;47.156;8.326;2023-12-29T02:31:51;4.40;99.90
1568;DHT22;777;47.156;8.326;2023-12-29T02:34:19;4.40;99.90
1568;DHT22;777;47.156;8.326;2023-12-29T02:36:48;4.50;99.90
1568;DHT22;777;47.156;8.326;2023-12-29T02:39:17;4.50;99.90
1568;DHT22;777;47.156;8.326;2023-12-29T02:41:45;4.50;99.90
1568;DHT22;777;47.156;8.326;2023-12-29T02:44:12;4.50;99.90
1568;DHT22;777;47.156;8.326;2023-12-29T02:46:39;4.50;99.90
1568;DHT22;777;47.156;8.326;2023-12-29T02:49:06;4.50;99.90
1568;DHT22;777;47.156;8.326;2023-12-29T02:51:37;4.60;99.90
1568;DHT22;777;47.156;8.326;2023-12-29T02:54:04;4.80;99.90
1568;DHT22;777;47.156;8.326;2023-12-29T02:56:33;4.70;99.90
1568;DHT22;777;47.156;8.326;2023-12-29T02:59:02;4.70;99.90
1568;DHT22;777;47.156;8.326;2023-12-29T03:01:29;4.80;99.90
1568;DHT22;777;47.156;8.326;2023-12-29T03:03:56;4.80;99.90
1568;DHT22;777;47.156;8.326;2023-12-29T03:06:23;4.80;99.90
1568;DHT22;777;47.156;8.326;2023-12-29T03:08:50;4.80;99.90
1568;DHT22;777;47.156;8.326;2023-12-29T03:11:17;4.90;99.90
1568;DHT22;777;47.156;8.326;2023-12-29T03:13:44;4.90;99.90
1568;DHT22;777;47.156;8.326;2023-12-29T03:16:13;4.90;99.90
1568;DHT22;777;47.156;8.326;2023-12-29T03:18:40;4.90;99.90
1568;DHT22;777;47.156;8.326;2023-12-29T03:21:07;5.00;99.90
1568;DHT22;777;47.156;8.326;2023-12-29T03:23:34;5.00;99.90
1568;DHT22;777;47.156;8.326;2023-12-29T03:26:01;5.00;99.90
1568;DHT22;777;47.156;8.326;2023-12-29T03:28:28;5.00;99.90
1568;DHT22;777;47.156;8.326;2023-12-29T03:30:55;5.00;99.90
1568;DHT22;777;47.156;8.326;2023-12-29T03:33:25;5.00;99.90
1568;DHT22;777;47.156;8.326;2023-12-29T03:35:52;5.00;99.90
1568;DHT22;777;47.156;8.326;2023-12-29T03:38:19;5.00;99.90
1568;DHT22;777;47.156;8.326;2023-12-29T03:40:46;4.90;99.90
1568;DHT22;777;47.156;8.326;2023-12-29T03:43:13;4.90;99.90
1568;DHT22;777;47.156;8.326;2023-12-29T03:45:40;4.80;99.90
1568;DHT22;777;47.156;8.326;2023-12-29T03:48:07;4.80;99.90
1568;DHT22;777;47.156;8.326;2023-12-29T03:50:36;4.80;99.90
1568;DHT22;777;47.156;8.326;2023-12-29T03:53:04;4.70;99.90
1568;DHT22;777;47.156;8.326;2023-12-29T03:55:31;4.70;99.90
1568;DHT22;777;47.156;8.326;2023-12-29T03:57:58;4.70;99.90
1568;DHT22;777;47.156;8.326;2023-12-29T04:00:26;4.70;99.90
1568;DHT22;777;47.156;8.326;2023-12-29T04:02:53;4.60;99.90
1568;DHT22;777;47.156;8.326;2023-12-29T04:05:20;4.60;99.90
1568;DHT22;777;47.156;8.326;2023-12-29T04:07:48;4.70;99.90
1568;DHT22;777;47.156;8.326;2023-12-29T04:10:15;4.60;99.90
1568;DHT22;777;47.156;8.326;2023-12-29T04:12:42;4.60;99.90
1568;DHT22;777;47.156;8.326;2023-12-29T04:15:10;4.60;99.90
1568;DHT22;777;47.156;8.326;2023-12-29T04:17:37;4.50;99.90
1568;DHT22;777;47.156;8.326;2023-12-29T04:20:05;4.40;99.90
1568;DHT22;777;47.156;8.326;2023-12-29T04:22:32;4.30;99.90
1568;DHT22;777;47.156;8.326;2023-12-29T04:25:00;4.30;99.90
1568;DHT22;777;47.156;8.326;2023-12-29T04:27:27;4.30;99.90
1568;DHT22;777;47.156;8.326;2023-12-29T04:29:54;4.30;99.90
1568;DHT22;777;47.156;8.326;2023-12-29T04:32:22;4.30;99.90
1568;DHT22;777;47.156;8.326;2023-12-29T04:34:49;4.30;99.90
1568;DHT22;777;47.156;8.326;2023-12-29T04:37:16;4.30;99.90
1568;DHT22;777;47.156;8.326;2023-12-29T04:39:43;4.30;99.90
1568;DHT22;777;47.156;8.326;2023-12-29T04:42:11;4.30;99.90
1568;DHT22;777;47.156;8.326;2023-12-29T04:44:38;4.50;99.90
1568;DHT22;777;47.156;8.326;2023-12-29T04:47:05;4.70;99.90
1568;DHT22;777;47.156;8.326;2023-12-29T04:49:33;4.70;99.90
1568;DHT22;777;47.156;8.326;2023-12-29T04:52:00;4.70;99.90
1568;DHT22;777;47.156;8.326;2023-12-29T04:54:27;4.80;99.90
1568;DHT22;777;47.156;8.326;2023-12-29T04:56:54;4.80;99.90
1568;DHT22;777;47.156;8.326;2023-12-29T04:59:22;4.90;99.90
1568;DHT22;777;47.156;8.326;2023-12-29T05:01:49;4.80;99.90
1568;DHT22;777;47.156;8.326;2023-12-29T05:04:16;4.70;99.90
1568;DHT22;777;47.156;8.326;2023-12-29T05:06:43;4.70;99.90
1568;DHT22;777;47.156;8.326;2023-12-29T05:09:10;4.70;99.90
1568;DHT22;777;47.156;8.326;2023-12-29T05:11:37;4.70;99.90
1568;DHT22;777;47.156;8.326;2023-12-29T05:14:04;4.90;99.90
1568;DHT22;777;47.156;8.326;2023-12-29T05:16:32;4.90;99.90
1568;DHT22;777;47.156;8.326;2023-12-29T05:18:59;5.00;99.90
1568;DHT22;777;47.156;8.326;2023-12-29T05:21:26;5.20;99.90
1568;DHT22;777;47.156;8.326;2023-12-29T05:23:53;5.60;99.90
1568;DHT22;777;47.156;8.326;2023-12-29T05:26:20;6.10;99.90
1568;DHT22;777;47.156;8.326;2023-12-29T05:28:47;6.40;99.90
1568;DHT22;777;47.156;8.326;2023-12-29T05:31:14;6.70;99.90
1568;DHT22;777;47.156;8.326;2023-12-29T05:33:43;6.80;99.90
1568;DHT22;777;47.156;8.326;2023-12-29T05:36:11;6.80;99.90
1568;DHT22;777;47.156;8.326;2023-12-29T05:38:38;6.90;99.90
1568;DHT22;777;47.156;8.326;2023-12-29T05:41:07;6.90;99.90
1568;DHT22;777;47.156;8.326;2023-12-29T05:43:34;7.00;99.90
1568;DHT22;777;47.156;8.326;2023-12-29T05:46:01;7.00;99.90
1568;DHT22;777;47.156;8.326;2023-12-29T05:48:28;7.10;99.90
1568;DHT22;777;47.156;8.326;2023-12-29T05:50:56;7.10;99.90
1568;DHT22;777;47.156;8.326;2023-12-29T05:53:23;7.20;99.90
1568;DHT22;777;47.156;8.326;2023-12-29T05:55:50;7.30;99.90
1568;DHT22;777;47.156;8.326;2023-12-29T05:58:17;7.30;99.90
1568;DHT22;777;47.156;8.326;2023-12-29T06:00:44;7.30;99.90
1568;DHT22;777;47.156;8.326;2023-12-29T06:03:12;7.30;99.90
1568;DHT22;777;47.156;8.326;2023-12-29T06:05:40;7.30;99.90
1568;DHT22;777;47.156;8.326;2023-12-29T06:08:08;7.30;99.90
1568;DHT22;777;47.156;8.326;2023-12-29T06:10:36;7.30;99.90
1568;DHT22;777;47.156;8.326;2023-12-29T06:13:03;7.40;99.90
1568;DHT22;777;47.156;8.326;2023-12-29T06:15:30;7.30;99.90
1568;DHT22;777;47.156;8.326;2023-12-29T06:17:57;7.20;99.90
1568;DHT22;777;47.156;8.326;2023-12-29T06:20:25;7.20;99.90
1568;DHT22;777;47.156;8.326;2023-12-29T06:22:52;6.90;99.90
1568;DHT22;777;47.156;8.326;2023-12-29T06:25:20;6.50;99.90
1568;DHT22;777;47.156;8.326;2023-12-29T06:27:47;6.10;99.90
1568;DHT22;777;47.156;8.326;2023-12-29T06:30:15;6.00;99.90
1568;DHT22;777;47.156;8.326;2023-12-29T06:32:42;5.80;99.90
1568;DHT22;777;47.156;8.326;2023-12-29T06:35:09;5.90;99.90
1568;DHT22;777;47.156;8.326;2023-12-29T06:37:37;5.80;99.90
1568;DHT22;777;47.156;8.326;2023-12-29T06:40:05;5.70;99.90
1568;DHT22;777;47.156;8.326;2023-12-29T06:42:34;5.70;99.90
1568;DHT22;777;47.156;8.326;2023-12-29T06:45:03;5.70;99.90
1568;DHT22;777;47.156;8.326;2023-12-29T06:47:30;5.70;99.90
1568;DHT22;777;47.156;8.326;2023-12-29T06:49:57;5.60;99.90
1568;DHT22;777;47.156;8.326;2023-12-29T06:52:25;5.50;99.90
1568;DHT22;777;47.156;8.326;2023-12-29T06:54:52;5.50;99.90
1568;DHT22;777;47.156;8.326;2023-12-29T06:57:19;5.50;99.90
1568;DHT22;777;47.156;8.326;2023-12-29T06:59:47;5.50;99.90
1568;DHT22;777;47.156;8.326;2023-12-29T07:02:14;5.40;99.90
1568;DHT22;777;47.156;8.326;2023-12-29T07:04:42;5.40;99.90
1568;DHT22;777;47.156;8.326;2023-12-29T07:07:09;5.50;99.90
1568;DHT22;777;47.156;8.326;2023-12-29T07:09:38;5.60;99.90
1568;DHT22;777;47.156;8.326;2023-12-29T07:12:06;5.60;99.90
1568;DHT22;777;47.156;8.326;2023-12-29T07:14:33;5.70;99.90
1568;DHT22;777;47.156;8.326;2023-12-29T07:17:02;5.70;99.90
1568;DHT22;777;47.156;8.326;2023-12-29T07:19:29;5.60;99.90
1568;DHT22;777;47.156;8.326;2023-12-29T07:22:03;5.60;99.90
1568;DHT22;777;47.156;8.326;2023-12-29T07:24:31;5.60;99.90
1568;DHT22;777;47.156;8.326;2023-12-29T07:26:58;5.60;99.90
1568;DHT22;777;47.156;8.326;2023-12-29T07:29:25;5.60;99.90
1568;DHT22;777;47.156;8.326;2023-12-29T07:31:53;5.70;99.90
1568;DHT22;777;47.156;8.326;2023-12-29T07:34:21;5.70;99.90
1568;DHT22;777;47.156;8.326;2023-12-29T07:36:48;5.70;99.90
1568;DHT22;777;47.156;8.326;2023-12-29T07:39:15;5.70;99.90
1568;DHT22;777;47.156;8.326;2023-12-29T07:41:42;5.70;99.90
1568;DHT22;777;47.156;8.326;2023-12-29T07:44:10;5.80;99.90
1568;DHT22;777;47.156;8.326;2023-12-29T07:46:38;5.80;99.90
1568;DHT22;777;47.156;8.326;2023-12-29T07:49:05;5.80;99.90
1568;DHT22;777;47.156;8.326;2023-12-29T07:51:33;5.80;99.90
1568;DHT22;777;47.156;8.326;2023-12-29T07:54:00;5.80;99.90
1568;DHT22;777;47.156;8.326;2023-12-29T07:56:28;5.80;99.90
1568;DHT22;777;47.156;8.326;2023-12-29T07:58:55;5.70;99.90
1568;DHT22;777;47.156;8.326;2023-12-29T08:01:22;5.80;99.90
1568;DHT22;777;47.156;8.326;2023-12-29T08:03:49;5.80;99.90
1568;DHT22;777;47.156;8.326;2023-12-29T08:06:16;5.80;99.90
1568;DHT22;777;47.156;8.326;2023-12-29T08:08:44;5.90;99.90
1568;DHT22;777;47.156;8.326;2023-12-29T08:11:14;5.90;99.90
1568;DHT22;777;47.156;8.326;2023-12-29T08:13:43;6.00;99.90
1568;DHT22;777;47.156;8.326;2023-12-29T08:16:10;6.00;99.90
1568;DHT22;777;47.156;8.326;2023-12-29T08:18:37;6.10;99.90
1568;DHT22;777;47.156;8.326;2023-12-29T08:21:04;6.20;99.90
1568;DHT22;777;47.156;8.326;2023-12-29T08:23:31;6.20;99.90
1568;DHT22;777;47.156;8.326;2023-12-29T08:25:59;6.30;99.90
1568;DHT22;777;47.156;8.326;2023-12-29T08:28:29;6.30;99.90
1568;DHT22;777;47.156;8.326;2023-12-29T08:30:56;6.30;99.90
1568;DHT22;777;47.156;8.326;2023-12-29T08:33:23;6.40;99.90
1568;DHT22;777;47.156;8.326;2023-12-29T08:35:50;6.50;99.90
1568;DHT22;777;47.156;8.326;2023-12-29T08:38:17;6.50;99.90
1568;DHT22;777;47.156;8.326;2023-12-29T08:40:44;6.50;99.90
1568;DHT22;777;47.156;8.326;2023-12-29T08:43:12;6.50;99.90
1568;DHT22;777;47.156;8.326;2023-12-29T08:45:39;6.50;99.90
1568;DHT22;777;47.156;8.326;2023-12-29T08:48:07;6.60;99.90
1568;DHT22;777;47.156;8.326;2023-12-29T08:50:34;6.60;99.90
1568;DHT22;777;47.156;8.326;2023-12-29T08:53:01;6.70;99.90
1568;DHT22;777;47.156;8.326;2023-12-29T08:55:28;6.60;99.90
1568;DHT22;777;47.156;8.326;2023-12-29T08:57:55;6.60;99.90
1568;DHT22;777;47.156;8.326;2023-12-29T09:00:23;6.60;99.90
1568;DHT22;777;47.156;8.326;2023-12-29T09:02:50;6.60;99.90
1568;DHT22;777;47.156;8.326;2023-12-29T09:05:17;6.60;99.90
1568;DHT22;777;47.156;8.326;2023-12-29T09:07:44;6.70;99.90
1568;DHT22;777;47.156;8.326;2023-12-29T09:10:11;6.70;99.90
1568;DHT22;777;47.156;8.326;2023-12-29T09:12:38;6.80;99.90
1568;DHT22;777;47.156;8.326;2023-12-29T09:15:06;7.00;99.90
1568;DHT22;777;47.156;8.326;2023-12-29T09:17:35;7.10;99.90
1568;DHT22;777;47.156;8.326;2023-12-29T09:20:02;7.20;99.90
1568;DHT22;777;47.156;8.326;2023-12-29T09:22:29;7.30;99.90
1568;DHT22;777;47.156;8.326;2023-12-29T09:24:56;7.40;99.90
1568;DHT22;777;47.156;8.326;2023-12-29T09:27:24;7.60;99.90
1568;DHT22;777;47.156;8.326;2023-12-29T09:29:50;7.60;99.90
1568;DHT22;777;47.156;8.326;2023-12-29T09:32:17;7.60;99.90
1568;DHT22;777;47.156;8.326;2023-12-29T09:34:46;7.70;99.90
1568;DHT22;777;47.156;8.326;2023-12-29T09:37:13;7.80;99.90
1568;DHT22;777;47.156;8.326;2023-12-29T09:39:40;8.00;99.90
1568;DHT22;777;47.156;8.326;2023-12-29T09:42:15;8.00;99.90
1568;DHT22;777;47.156;8.326;2023-12-29T09:44:45;8.20;99.90
1568;DHT22;777;47.156;8.326;2023-12-29T09:47:14;8.20;99.90
1568;DHT22;777;47.156;8.326;2023-12-29T09:49:42;8.30;99.90
1568;DHT22;777;47.156;8.326;2023-12-29T09:52:12;8.30;99.90
1568;DHT22;777;47.156;8.326;2023-12-29T09:54:40;8.40;99.90
1568;DHT22;777;47.156;8.326;2023-12-29T09:57:08;8.60;99.90
1568;DHT22;777;47.156;8.326;2023-12-29T09:59:36;8.90;99.90
1568;DHT22;777;47.156;8.326;2023-12-29T10:02:04;9.10;99.90
1568;DHT22;777;47.156;8.326;2023-12-29T10:04:31;9.40;99.90
1568;DHT22;777;47.156;8.326;2023-12-29T10:07:02;9.60;99.90
1568;DHT22;777;47.156;8.326;2023-12-29T10:09:37;9.70;99.90
1568;DHT22;777;47.156;8.326;2023-12-29T10:12:09;9.90;99.90
1568;DHT22;777;47.156;8.326;2023-12-29T10:14:41;9.90;99.90
1568;DHT22;777;47.156;8.326;2023-12-29T10:17:27;9.80;99.90
1568;DHT22;777;47.156;8.326;2023-12-29T10:20:05;9.70;99.90
1568;DHT22;777;47.156;8.326;2023-12-29T10:22:43;9.70;99.90
1568;DHT22;777;47.156;8.326;2023-12-29T10:25:12;9.70;99.90
1568;DHT22;777;47.156;8.326;2023-12-29T10:27:40;9.60;99.90
1568;DHT22;777;47.156;8.326;2023-12-29T10:30:10;9.60;99.90
1568;DHT22;777;47.156;8.326;2023-12-29T10:32:37;9.60;99.90
1568;DHT22;777;47.156;8.326;2023-12-29T10:35:08;9.70;99.90
1568;DHT22;777;47.156;8.326;2023-12-29T10:37:37;9.60;99.90
1568;DHT22;777;47.156;8.326;2023-12-29T10:40:06;9.50;99.90
1568;DHT22;777;47.156;8.326;2023-12-29T10:42:34;9.50;99.90
1568;DHT22;777;47.156;8.326;2023-12-29T10:45:05;9.60;99.90
1568;DHT22;777;47.156;8.326;2023-12-29T10:47:33;9.90;99.90
1568;DHT22;777;47.156;8.326;2023-12-29T10:50:02;9.90;99.90
1568;DHT22;777;47.156;8.326;2023-12-29T10:52:31;9.80;99.90
1568;DHT22;777;47.156;8.326;2023-12-29T10:55:06;9.40;99.90
1568;DHT22;777;47.156;8.326;2023-12-29T10:57:35;9.60;99.90
1568;DHT22;777;47.156;8.326;2023-12-29T11:00:03;9.90;99.90
1568;DHT22;777;47.156;8.326;2023-12-29T11:02:31;10.10;99.90
1568;DHT22;777;47.156;8.326;2023-12-29T11:05:03;10.40;99.90
1568;DHT22;777;47.156;8.326;2023-12-29T11:07:35;10.50;99.90
1568;DHT22;777;47.156;8.326;2023-12-29T11:10:03;10.60;99.90
1568;DHT22;777;47.156;8.326;2023-12-29T11:12:32;10.40;99.90
1568;DHT22;777;47.156;8.326;2023-12-29T11:15:02;10.10;99.90
1568;DHT22;777;47.156;8.326;2023-12-29T11:17:30;10.10;99.90
1568;DHT22;777;47.156;8.326;2023-12-29T11:19:59;10.10;99.90
1568;DHT22;777;47.156;8.326;2023-12-29T11:22:29;10.20;99.90
1568;DHT22;777;47.156;8.326;2023-12-29T11:24:57;10.20;99.90
1568;DHT22;777;47.156;8.326;2023-12-29T11:27:29;10.20;99.90
1568;DHT22;777;47.156;8.326;2023-12-29T11:29:58;10.20;99.90
1568;DHT22;777;47.156;8.326;2023-12-29T11:32:32;10.30;99.90
1568;DHT22;777;47.156;8.326;2023-12-29T11:35:11;10.30;99.90
1568;DHT22;777;47.156;8.326;2023-12-29T11:41:02;10.30;99.90
1568;DHT22;777;47.156;8.326;2023-12-29T11:43:32;10.10;99.90
1568;DHT22;777;47.156;8.326;2023-12-29T11:46:00;10.10;99.90
1568;DHT22;777;47.156;8.326;2023-12-29T11:48:55;10.10;99.90
1568;DHT22;777;47.156;8.326;2023-12-29T11:51:29;9.80;99.90
1568;DHT22;777;47.156;8.326;2023-12-29T11:53:56;9.70;99.90
1568;DHT22;777;47.156;8.326;2023-12-29T11:56:24;9.60;99.90
1568;DHT22;777;47.156;8.326;2023-12-29T11:58:51;9.50;99.90
1568;DHT22;777;47.156;8.326;2023-12-29T12:01:32;9.50;99.90
1568;DHT22;777;47.156;8.326;2023-12-29T12:04:01;9.50;99.90
1568;DHT22;777;47.156;8.326;2023-12-29T12:06:36;9.50;99.90
1568;DHT22;777;47.156;8.326;2023-12-29T12:09:17;9.40;99.90
1568;DHT22;777;47.156;8.326;2023-12-29T12:11:49;9.50;99.90
1568;DHT22;777;47.156;8.326;2023-12-29T12:14:44;9.70;99.90
1568;DHT22;777;47.156;8.326;2023-12-29T12:17:11;9.80;99.90
1568;DHT22;777;47.156;8.326;2023-12-29T12:19:39;9.80;99.90
1568;DHT22;777;47.156;8.326;2023-12-29T12:22:09;9.80;99.90
1568;DHT22;777;47.156;8.326;2023-12-29T12:24:37;9.80;99.90
1568;DHT22;777;47.156;8.326;2023-12-29T12:27:09;9.80;99.90
1568;DHT22;777;47.156;8.326;2023-12-29T12:29:37;9.90;99.90
1568;DHT22;777;47.156;8.326;2023-12-29T12:32:04;9.80;99.90
1568;DHT22;777;47.156;8.326;2023-12-29T12:34:37;9.90;99.90
1568;DHT22;777;47.156;8.326;2023-12-29T12:37:05;9.90;99.90
1568;DHT22;777;47.156;8.326;2023-12-29T12:39:39;9.90;99.90
1568;DHT22;777;47.156;8.326;2023-12-29T12:42:06;10.00;99.90
1568;DHT22;777;47.156;8.326;2023-12-29T12:44:33;10.10;99.90
1568;DHT22;777;47.156;8.326;2023-12-29T12:47:07;10.20;99.90
1568;DHT22;777;47.156;8.326;2023-12-29T12:49:36;10.50;99.90
1568;DHT22;777;47.156;8.326;2023-12-29T12:52:05;10.60;99.90
1568;DHT22;777;47.156;8.326;2023-12-29T12:54:32;10.90;99.90
1568;DHT22;777;47.156;8.326;2023-12-29T12:56:59;11.00;99.90
1568;DHT22;777;47.156;8.326;2023-12-29T12:59:27;11.10;99.90
1568;DHT22;777;47.156;8.326;2023-12-29T13:01:54;11.10;99.90
1568;DHT22;777;47.156;8.326;2023-12-29T13:04:22;11.20;99.90
1568;DHT22;777;47.156;8.326;2023-12-29T13:06:49;11.20;99.90
1568;DHT22;777;47.156;8.326;2023-12-29T13:09:18;11.20;99.90
1568;DHT22;777;47.156;8.326;2023-12-29T13:11:45;11.00;99.90
1568;DHT22;777;47.156;8.326;2023-12-29T13:14:19;11.00;99.90
1568;DHT22;777;47.156;8.326;2023-12-29T13:16:47;11.00;99.90
1568;DHT22;777;47.156;8.326;2023-12-29T13:19:16;11.00;99.90
1568;DHT22;777;47.156;8.326;2023-12-29T13:21:46;10.90;99.90
1568;DHT22;777;47.156;8.326;2023-12-29T13:24:13;10.90;99.90
1568;DHT22;777;47.156;8.326;2023-12-29T13:26:44;10.90;99.90
1568;DHT22;777;47.156;8.326;2023-12-29T13:29:12;10.80;99.90
1568;DHT22;777;47.156;8.326;2023-12-29T13:31:40;10.80;99.90
1568;DHT22;777;47.156;8.326;2023-12-29T13:34:12;10.80;99.90
1568;DHT22;777;47.156;8.326;2023-12-29T13:36:43;10.80;99.90
1568;DHT22;777;47.156;8.326;2023-12-29T13:39:21;10.80;99.90
1568;DHT22;777;47.156;8.326;2023-12-29T13:41:51;11.20;99.90
1568;DHT22;777;47.156;8.326;2023-12-29T13:44:18;11.00;99.90
1568;DHT22;777;47.156;8.326;2023-12-29T13:46:47;10.90;99.90
1568;DHT22;777;47.156;8.326;2023-12-29T13:49:15;10.90;99.90
1568;DHT22;777;47.156;8.326;2023-12-29T13:51:42;11.00;99.90
1568;DHT22;777;47.156;8.326;2023-12-29T13:54:09;11.00;99.90
1568;DHT22;777;47.156;8.326;2023-12-29T13:56:36;11.10;99.90
1568;DHT22;777;47.156;8.326;2023-12-29T13:59:05;11.20;99.90
1568;DHT22;777;47.156;8.326;2023-12-29T14:01:36;11.30;99.90
1568;DHT22;777;47.156;8.326;2023-12-29T14:04:07;11.40;99.90
1568;DHT22;777;47.156;8.326;2023-12-29T14:06:40;11.50;99.90
1568;DHT22;777;47.156;8.326;2023-12-29T14:09:13;11.60;99.90
1568;DHT22;777;47.156;8.326;2023-12-29T14:11:44;11.70;99.90
1568;DHT22;777;47.156;8.326;2023-12-29T14:14:13;11.70;99.90
1568;DHT22;777;47.156;8.326;2023-12-29T14:16:40;11.80;99.90
1568;DHT22;777;47.156;8.326;2023-12-29T14:19:07;11.80;99.90
1568;DHT22;777;47.156;8.326;2023-12-29T14:21:34;11.60;99.90
1568;DHT22;777;47.156;8.326;2023-12-29T14:24:06;11.50;99.90
1568;DHT22;777;47.156;8.326;2023-12-29T14:26:33;11.30;99.90
1568;DHT22;777;47.156;8.326;2023-12-29T14:29:01;11.00;99.90
1568;DHT22;777;47.156;8.326;2023-12-29T14:31:32;10.80;99.90
1568;DHT22;777;47.156;8.326;2023-12-29T14:33:59;10.60;99.90
1568;DHT22;777;47.156;8.326;2023-12-29T14:36:26;10.40;99.90
1568;DHT22;777;47.156;8.326;2023-12-29T14:38:53;10.30;99.90
1568;DHT22;777;47.156;8.326;2023-12-29T14:41:20;10.20;99.90
1568;DHT22;777;47.156;8.326;2023-12-29T14:43:47;10.10;99.90
1568;DHT22;777;47.156;8.326;2023-12-29T14:46:14;10.00;99.90
1568;DHT22;777;47.156;8.326;2023-12-29T14:48:43;9.90;99.90
1568;DHT22;777;47.156;8.326;2023-12-29T14:51:10;9.80;99.90
1568;DHT22;777;47.156;8.326;2023-12-29T14:53:37;9.70;99.90
1568;DHT22;777;47.156;8.326;2023-12-29T14:56:05;9.60;99.90
1568;DHT22;777;47.156;8.326;2023-12-29T14:58:32;9.50;99.90
1568;DHT22;777;47.156;8.326;2023-12-29T15:00:59;9.50;99.90
1568;DHT22;777;47.156;8.326;2023-12-29T15:03:26;9.30;99.90
1568;DHT22;777;47.156;8.326;2023-12-29T15:05:54;9.30;99.90
1568;DHT22;777;47.156;8.326;2023-12-29T15:08:22;9.30;99.90
1568;DHT22;777;47.156;8.326;2023-12-29T15:10:49;9.20;99.90
1568;DHT22;777;47.156;8.326;2023-12-29T15:13:16;9.20;99.90
1568;DHT22;777;47.156;8.326;2023-12-29T15:15:43;9.10;99.90
1568;DHT22;777;47.156;8.326;2023-12-29T15:18:10;9.10;99.90
1568;DHT22;777;47.156;8.326;2023-12-29T15:20:37;9.00;99.90
1568;DHT22;777;47.156;8.326;2023-12-29T15:23:05;9.10;99.90
1568;DHT22;777;47.156;8.326;2023-12-29T15:25:33;9.10;99.90
1568;DHT22;777;47.156;8.326;2023-12-29T15:28:00;9.10;99.90
1568;DHT22;777;47.156;8.326;2023-12-29T15:30:27;9.20;99.90
1568;DHT22;777;47.156;8.326;2023-12-29T15:32:54;9.20;99.90
1568;DHT22;777;47.156;8.326;2023-12-29T15:35:21;9.20;99.90
1568;DHT22;777;47.156;8.326;2023-12-29T15:37:48;9.30;99.90
1568;DHT22;777;47.156;8.326;2023-12-29T15:40:16;9.30;99.90
1568;DHT22;777;47.156;8.326;2023-12-29T15:42:43;9.20;99.90
1568;DHT22;777;47.156;8.326;2023-12-29T15:45:10;9.30;99.90
1568;DHT22;777;47.156;8.326;2023-12-29T15:47:38;9.20;99.90
1568;DHT22;777;47.156;8.326;2023-12-29T15:50:06;9.20;99.90
1568;DHT22;777;47.156;8.326;2023-12-29T15:52:33;9.20;99.90
1568;DHT22;777;47.156;8.326;2023-12-29T15:55:00;9.20;99.90
1568;DHT22;777;47.156;8.326;2023-12-29T15:57:28;9.20;99.90
1568;DHT22;777;47.156;8.326;2023-12-29T15:59:55;9.10;99.90
1568;DHT22;777;47.156;8.326;2023-12-29T16:02:22;9.10;99.90
1568;DHT22;777;47.156;8.326;2023-12-29T16:04:50;9.10;99.90
1568;DHT22;777;47.156;8.326;2023-12-29T16:07:17;9.00;99.90
1568;DHT22;777;47.156;8.326;2023-12-29T16:09:44;9.00;99.90
1568;DHT22;777;47.156;8.326;2023-12-29T16:12:10;9.00;99.90
1568;DHT22;777;47.156;8.326;2023-12-29T16:14:39;8.90;99.90
1568;DHT22;777;47.156;8.326;2023-12-29T16:17:07;8.90;99.90
1568;DHT22;777;47.156;8.326;2023-12-29T16:19:34;8.80;99.90
1568;DHT22;777;47.156;8.326;2023-12-29T16:22:00;8.90;99.90
1568;DHT22;777;47.156;8.326;2023-12-29T16:24:27;8.90;99.90
1568;DHT22;777;47.156;8.326;2023-12-29T16:26:54;8.90;99.90
1568;DHT22;777;47.156;8.326;2023-12-29T16:29:21;8.80;99.90
1568;DHT22;777;47.156;8.326;2023-12-29T16:31:50;8.70;99.90
1568;DHT22;777;47.156;8.326;2023-12-29T16:34:17;8.80;99.90
1568;DHT22;777;47.156;8.326;2023-12-29T16:36:56;8.70;99.90
1568;DHT22;777;47.156;8.326;2023-12-29T16:39:23;8.70;99.90
1568;DHT22;777;47.156;8.326;2023-12-29T16:41:50;8.70;99.90